Time;durP1;ratioP1;P1;durP2;ratioP2;P2;SDS_P1;SDS_P2;PMS_P1;PMS_P2;Temp;Humidity;BMP_temperature;BMP_pressure;BME280_temperature;BME280_humidity;BME280_pressure;Samples;Min_cycle;Max_cycle;Signal;HPM_P1;HPM_P2
2021/08/26 00:00:29;;;;;;;1999.90;999.90;;;;;;;10.43;55.42;100565.88;5066499;27;98967;-76
2021/08/26 00:06:00;;;;;;;1999.90;999.90;;;;;;;10.42;55.29;100558.72;4968252;28;97541;-77
2021/08/26 00:08:28;;;;;;;1999.90;999.90;;;;;;;10.42;55.45;100572.03;4984974;28;99201;-76
2021/08/26 00:10:57;;;;;;;1999.90;999.90;;;;;;;10.42;55.59;100567.63;5005189;27;99165;-76
2021/08/26 00:13:25;;;;;;;1999.90;999.90;;;;;;;10.44;55.54;100562.31;5085207;27;96793;-77
2021/08/26 00:15:55;;;;;;;1999.90;999.90;;;;;;;10.42;55.66;100561.41;5047395;27;97051;-76
2021/08/26 00:18:24;;;;;;;1999.90;999.90;;;;;;;10.41;55.77;100559.59;5075022;27;99207;-76
2021/08/26 00:20:53;;;;;;;1999.90;999.90;;;;;;;10.44;55.51;100554.34;5061480;27;100769;-76
2021/08/26 00:23:23;;;;;;;1999.90;999.90;;;;;;;10.45;55.51;100553.50;5061511;27;97187;-77
2021/08/26 00:25:52;;;;;;;1999.90;999.90;;;;;;;10.48;55.39;100551.78;5067649;27;97328;-77
2021/08/26 00:28:20;;;;;;;1999.90;999.90;;;;;;;10.48;55.48;100554.44;5067044;27;97780;-77
2021/08/26 00:30:47;;;;;;;1999.90;999.90;;;;;;;10.55;55.09;100544.78;5066350;27;98085;-76
2021/08/26 00:33:15;;;;;;;1999.90;999.90;;;;;;;10.61;54.97;100550.22;5067530;27;97167;-76
2021/08/26 00:35:44;;;;;;;1999.90;999.90;;;;;;;10.70;54.94;100555.69;5067348;27;96953;-76
2021/08/26 00:38:12;;;;;;;1999.90;999.90;;;;;;;10.71;55.06;100546.84;5072476;27;97694;-78
2021/08/26 00:40:41;;;;;;;1999.90;999.90;;;;;;;10.74;54.93;100549.56;5054380;27;100296;-77
2021/08/26 00:43:13;;;;;;;1999.90;999.90;;;;;;;10.77;54.76;100547.84;5051939;27;97111;-77
2021/08/26 00:45:44;;;;;;;1999.90;999.90;;;;;;;10.80;54.65;100544.31;5067679;27;96991;-77
2021/08/26 00:48:15;;;;;;;1999.90;999.90;;;;;;;10.86;54.41;100545.34;5068935;27;99129;-77
2021/08/26 00:50:43;;;;;;;1999.90;999.90;;;;;;;10.93;54.29;100543.66;5051218;27;100405;-77
2021/08/26 00:53:11;;;;;;;1999.90;999.90;;;;;;;10.90;54.67;100551.59;5045721;27;97142;-77
2021/08/26 00:55:39;;;;;;;1999.90;999.90;;;;;;;10.88;54.55;100540.03;5086247;27;96838;-77
2021/08/26 00:58:09;;;;;;;1999.90;999.90;;;;;;;10.91;54.43;100540.06;5066949;27;97667;-77
2021/08/26 01:00:39;;;;;;;1999.90;999.90;;;;;;;10.94;54.34;100545.47;5066852;27;99352;-77
2021/08/26 01:03:10;;;;;;;1999.90;999.90;;;;;;;10.96;53.98;100546.34;5051687;27;97367;-78
2021/08/26 01:05:43;;;;;;;1999.90;999.90;;;;;;;11.03;54.21;100542.94;5068192;27;97163;-77
2021/08/26 01:08:14;;;;;;;1999.90;999.90;;;;;;;11.07;54.08;100543.00;5048445;27;99629;-77
2021/08/26 01:10:44;;;;;;;1999.90;999.90;;;;;;;11.02;54.29;100541.13;5066127;27;98617;-77
2021/08/26 01:13:14;;;;;;;1999.90;999.90;;;;;;;10.95;54.40;100529.50;5069045;27;97287;-77
2021/08/26 01:16:04;;;;;;;1999.90;999.90;;;;;;;10.88;56.73;100534.72;5086949;27;96746;-77
2021/08/26 01:18:34;;;;;;;1999.90;999.90;;;;;;;10.87;54.44;100530.25;5086852;27;97809;-76
2021/08/26 01:21:02;;;;;;;1999.90;999.90;;;;;;;10.84;54.57;100535.53;5050930;27;99943;-78
2021/08/26 01:23:33;;;;;;;1999.90;999.90;;;;;;;10.77;54.53;100525.66;5067533;27;97387;-77
2021/08/26 01:26:03;;;;;;;1999.90;999.90;;;;;;;10.71;54.78;100534.44;5066566;27;97350;-77
2021/08/26 01:28:33;;;;;;;1999.90;999.90;;;;;;;10.72;54.59;100546.84;5085973;27;97717;-78
2021/08/26 01:31:01;;;;;;;1999.90;999.90;;;;;;;10.70;54.75;100543.28;5067252;27;100769;-76
2021/08/26 01:33:29;;;;;;;1999.90;999.90;;;;;;;10.71;54.47;100539.75;5086761;27;96786;-77
2021/08/26 01:35:57;;;;;;;1999.90;999.90;;;;;;;10.74;54.61;100539.78;5067340;27;97142;-78
2021/08/26 01:38:26;;;;;;;1999.90;999.90;;;;;;;10.76;54.47;100535.41;5050658;27;99071;-77
2021/08/26 01:40:54;;;;;;;1999.90;999.90;;;;;;;10.74;54.69;100544.25;5050578;27;99268;-77
2021/08/26 01:43:24;;;;;;;1999.90;999.90;;;;;;;10.74;54.45;100538.94;5049503;27;97343;-77
2021/08/26 01:45:52;;;;;;;1999.90;999.90;;;;;;;10.76;54.43;100531.81;5068758;27;97260;-78
2021/08/26 01:48:21;;;;;;;1999.90;999.90;;;;;;;10.81;54.14;100531.03;5067987;27;99494;-78
2021/08/26 01:50:50;;;;;;;1999.90;999.90;;;;;;;10.84;54.33;100530.19;5087701;27;98805;-77
2021/08/26 01:53:19;;;;;;;1999.90;999.90;;;;;;;10.84;54.61;100532.88;5068176;27;97503;-78
2021/08/26 01:55:47;;;;;;;1999.90;999.90;;;;;;;10.81;54.37;100523.06;5067342;27;97002;-77
2021/08/26 01:58:15;;;;;;;1999.90;999.90;;;;;;;10.81;54.45;100533.69;5086747;27;98035;-78
2021/08/26 02:00:45;;;;;;;1999.90;999.90;;;;;;;10.80;54.58;100523.94;5068547;27;99575;-76
2021/08/26 02:03:13;;;;;;;1999.90;999.90;;;;;;;10.79;54.73;100515.94;5085883;27;96831;-77
2021/08/26 02:05:41;;;;;;;1999.90;999.90;;;;;;;10.79;54.37;100519.50;5068084;27;97011;-77
2021/08/26 02:08:09;;;;;;;1999.90;999.90;;;;;;;10.77;54.62;100517.66;5084438;27;99270;-76
2021/08/26 02:10:37;;;;;;;1999.90;999.90;;;;;;;10.77;54.54;100515.00;5069637;27;98777;-77
2021/08/26 02:13:05;;;;;;;1999.90;999.90;;;;;;;10.76;54.69;100516.78;5089767;27;96805;-78
2021/08/26 02:15:33;;;;;;;1999.90;999.90;;;;;;;10.76;54.46;100519.44;5091451;27;96785;-77
2021/08/26 02:18:04;;;;;;;1999.90;999.90;;;;;;;10.76;54.46;100515.84;5067861;27;99914;-76
2021/08/26 02:20:32;;;;;;;1999.90;999.90;;;;;;;10.73;54.62;100523.81;5068259;27;99139;-76
2021/08/26 02:23:00;;;;;;;1999.90;999.90;;;;;;;10.72;54.59;100519.38;5066416;27;97237;-76
2021/08/26 02:25:29;;;;;;;1999.90;999.90;;;;;;;10.69;54.60;100506.00;5052761;27;96571;-76
2021/08/26 02:27:57;;;;;;;1999.90;999.90;;;;;;;10.67;54.71;100511.28;5051015;27;100310;-76
2021/08/26 02:30:25;;;;;;;1999.90;999.90;;;;;;;10.69;54.67;100517.53;5068850;27;101050;-76
2021/08/26 02:32:53;;;;;;;1999.90;999.90;;;;;;;10.71;54.51;100512.25;5071236;27;96346;-76
2021/08/26 02:35:22;;;;;;;1999.90;999.90;;;;;;;10.71;54.39;100509.59;5069443;27;97262;-76
2021/08/26 02:37:50;;;;;;;1999.90;999.90;;;;;;;10.70;54.65;100521.09;5053254;27;99456;-76
2021/08/26 02:40:18;;;;;;;1999.90;999.90;;;;;;;10.68;54.56;100505.13;5069198;27;99313;-76
2021/08/26 02:42:46;;;;;;;1999.90;999.90;;;;;;;10.70;54.47;100510.47;5070530;27;97208;-76
2021/08/26 02:45:14;;;;;;;1999.90;999.90;;;;;;;10.72;54.63;100506.06;5070290;27;96865;-76
2021/08/26 02:47:42;;;;;;;1999.90;999.90;;;;;;;10.73;54.48;100510.50;5073082;27;100862;-77
2021/08/26 02:50:10;;;;;;;1999.90;999.90;;;;;;;10.73;54.65;100505.19;5071287;27;99801;-76
2021/08/26 02:52:39;;;;;;;1999.90;999.90;;;;;;;10.72;54.62;100498.09;5089963;27;96970;-76
2021/08/26 02:55:08;;;;;;;1999.90;999.90;;;;;;;10.71;54.67;100504.25;5070365;27;96710;-76
2021/08/26 02:57:36;;;;;;;1999.90;999.90;;;;;;;10.74;54.44;100496.34;5067630;27;97907;-76
2021/08/26 03:00:05;;;;;;;1999.90;999.90;;;;;;;10.75;54.40;100499.03;5088951;27;97977;-76
2021/08/26 03:02:33;;;;;;;1999.90;999.90;;;;;;;10.79;54.23;100499.97;5072754;27;97099;-77
2021/08/26 03:05:01;;;;;;;1999.90;999.90;;;;;;;10.79;54.35;100498.22;5073970;27;97275;-76
2021/08/26 03:07:30;;;;;;;1999.90;999.90;;;;;;;10.77;54.23;100499.03;5050008;27;99929;-77
2021/08/26 03:09:59;;;;;;;1999.90;999.90;;;;;;;10.75;54.52;100499.03;5054077;27;99179;-76
2021/08/26 03:12:27;;;;;;;1999.90;999.90;;;;;;;10.68;54.93;100505.13;5050662;27;96808;-76
2021/08/26 03:14:55;;;;;;;1999.90;999.90;;;;;;;10.65;54.58;100489.09;5052624;27;97050;-77
2021/08/26 03:17:23;;;;;;;1999.90;999.90;;;;;;;10.66;54.57;100493.56;5068200;27;100911;-76
2021/08/26 03:19:51;;;;;;;1999.90;999.90;;;;;;;10.67;54.66;100497.09;5068133;27;99027;-77
2021/08/26 03:22:19;;;;;;;1999.90;999.90;;;;;;;10.66;54.70;100493.56;5087161;27;97120;-76
2021/08/26 03:24:47;;;;;;;1999.90;999.90;;;;;;;10.68;54.58;100497.13;5070151;27;97326;-77
2021/08/26 03:27:16;;;;;;;1999.90;999.90;;;;;;;10.66;54.75;100495.31;5087640;27;98682;-77
2021/08/26 03:29:44;;;;;;;1999.90;999.90;;;;;;;10.70;54.69;100499.81;5050108;27;100073;-75
2021/08/26 03:32:12;;;;;;;1999.90;999.90;;;;;;;10.72;54.71;100498.09;5061521;27;96854;-75
2021/08/26 03:34:40;;;;;;;1999.90;999.90;;;;;;;10.71;54.38;100497.19;5067649;27;96868;-76
2021/08/26 03:37:09;;;;;;;1999.90;999.90;;;;;;;10.76;54.53;100499.91;5067372;27;100558;-76
2021/08/26 03:39:37;;;;;;;1999.90;999.90;;;;;;;10.80;54.09;100499.97;5066879;27;99419;-77
2021/08/26 03:42:05;;;;;;;1999.90;999.90;;;;;;;10.80;54.30;100496.41;5051911;27;96849;-77
2021/08/26 03:44:34;;;;;;;1999.90;999.90;;;;;;;10.84;54.11;100503.59;5066856;27;96801;-76
2021/08/26 03:47:02;;;;;;;1999.90;999.90;;;;;;;10.82;54.46;100505.31;5065610;27;99237;-76
2021/08/26 03:49:30;;;;;;;1999.90;999.90;;;;;;;10.81;54.35;100500.88;5048272;27;99238;-77
2021/08/26 03:51:58;;;;;;;1999.90;999.90;;;;;;;10.82;54.42;100498.25;5085883;27;96842;-75
2021/08/26 03:54:26;;;;;;;1999.90;999.90;;;;;;;10.80;54.50;100496.41;5065011;27;96965;-76
2021/08/26 03:56:54;;;;;;;1999.90;999.90;;;;;;;10.78;54.49;100515.03;5084089;27;97580;-76
2021/08/26 03:59:22;;;;;;;1999.90;999.90;;;;;;;10.74;54.68;100505.19;5064296;27;99391;-76
2021/08/26 04:01:51;;;;;;;1999.90;999.90;;;;;;;10.75;54.61;100498.13;5066893;27;96881;-76
2021/08/26 04:04:19;;;;;;;1999.90;999.90;;;;;;;10.75;54.73;100503.44;5049699;27;97573;-76
2021/08/26 04:06:47;;;;;;;1999.90;999.90;;;;;;;10.75;54.62;100495.47;5063162;27;98737;-76
2021/08/26 04:09:15;;;;;;;1999.90;999.90;;;;;;;10.73;54.68;100495.44;5066033;27;99898;-76
2021/08/26 04:11:43;;;;;;;1999.90;999.90;;;;;;;10.75;54.54;100508.75;5065526;27;96777;-75
2021/08/26 04:14:11;;;;;;;1999.90;999.90;;;;;;;10.71;54.76;100491.84;5066078;27;98371;-76
2021/08/26 04:16:39;;;;;;;1999.90;999.90;;;;;;;10.65;54.81;100497.06;5065079;27;99221;-76
2021/08/26 04:19:09;;;;;;;1999.90;999.90;;;;;;;10.70;54.53;100500.69;5058988;27;100722;-76
2021/08/26 04:21:37;;;;;;;1999.90;999.90;;;;;;;10.71;54.46;100501.59;5065622;27;96983;-76
2021/08/26 04:24:05;;;;;;;1999.90;999.90;;;;;;;10.66;54.79;100495.31;5066904;27;97021;-76
2021/08/26 04:26:33;;;;;;;1999.90;999.90;;;;;;;10.62;54.93;100498.78;5048423;27;99477;-77
2021/08/26 04:29:01;;;;;;;1999.90;999.90;;;;;;;10.54;55.10;100495.13;5048952;27;99242;-76
2021/08/26 04:31:29;;;;;;;1999.90;999.90;;;;;;;10.56;54.64;100496.00;5067918;27;96879;-78
2021/08/26 04:33:57;;;;;;;1999.90;999.90;;;;;;;10.58;54.80;100500.50;5067576;27;96813;-75
2021/08/26 04:36:26;;;;;;;1999.90;999.90;;;;;;;10.63;54.65;100497.94;5019881;27;1159358;-74
2021/08/26 04:38:55;;;;;;;1999.90;999.90;;;;;;;10.63;54.73;100495.28;5048145;27;99158;-78
2021/08/26 04:41:22;;;;;;;1999.90;999.90;;;;;;;10.59;54.92;100490.75;5050235;27;97176;-75
2021/08/26 04:43:51;;;;;;;1999.90;999.90;;;;;;;10.60;54.81;100482.81;5085931;27;97295;-78
2021/08/26 04:46:19;;;;;;;1999.90;999.90;;;;;;;10.61;54.90;100487.25;5067749;27;98047;-79
2021/08/26 04:48:48;;;;;;;1999.90;999.90;;;;;;;10.59;54.97;100488.09;5068883;27;99916;-77
2021/08/26 04:51:15;;;;;;;1999.90;999.90;;;;;;;10.54;55.09;100492.47;5070804;27;96996;-77
2021/08/26 04:53:45;;;;;;;1999.90;999.90;;;;;;;10.51;55.33;100495.06;5091225;27;97688;-79
2021/08/26 04:56:13;;;;;;;1999.90;999.90;;;;;;;10.49;54.98;100491.47;5033907;27;96856;-80
2021/08/26 04:58:41;;;;;;;1999.90;999.90;;;;;;;10.48;54.96;100492.34;5082925;27;96832;-79
2021/08/26 05:01:10;;;;;;;1999.90;999.90;;;;;;;10.52;54.86;100497.72;5085971;27;96722;-79
2021/08/26 05:03:41;;;;;;;1999.90;999.90;;;;;;;10.50;55.14;100503.91;5048922;27;96890;-78
2021/08/26 05:06:10;;;;;;;1999.90;999.90;;;;;;;10.48;55.17;100503.00;5064889;27;97258;-78
2021/08/26 05:08:39;;;;;;;1999.90;999.90;;;;;;;10.49;55.04;100512.75;5082161;27;99143;-78
2021/08/26 05:11:08;;;;;;;1999.90;999.90;;;;;;;10.49;55.26;100505.66;5048762;27;96848;-79
2021/08/26 05:13:36;;;;;;;1999.90;999.90;;;;;;;10.56;54.81;100506.66;5070736;27;96776;-78
2021/08/26 05:16:06;;;;;;;1999.90;999.90;;;;;;;10.52;55.33;100510.16;5051278;27;98063;-79
2021/08/26 05:18:35;;;;;;;1999.90;999.90;;;;;;;10.54;55.01;100503.09;5049766;27;98860;-79
2021/08/26 05:21:03;;;;;;;1999.90;999.90;;;;;;;10.54;54.81;100509.28;5065904;27;96862;-80
2021/08/26 05:23:31;;;;;;;1999.90;999.90;;;;;;;10.53;55.00;100512.84;5088649;27;97184;-79
2021/08/26 05:26:03;;;;;;;1999.90;999.90;;;;;;;10.53;55.06;100502.19;5049396;27;97343;-78
2021/08/26 05:28:33;;;;;;;1999.90;999.90;;;;;;;10.57;54.80;100508.47;5069488;27;99381;-78
2021/08/26 05:31:02;;;;;;;1999.90;999.90;;;;;;;10.60;54.87;100500.53;5069361;27;97942;-79
2021/08/26 05:33:30;;;;;;;1999.90;999.90;;;;;;;10.61;54.80;100500.53;5048804;27;96926;-78
2021/08/26 05:35:58;;;;;;;1999.90;999.90;;;;;;;10.63;54.77;100509.44;5050609;27;99825;-79
2021/08/26 05:38:27;;;;;;;1999.90;999.90;;;;;;;10.61;54.74;100495.22;5071452;27;98083;-79
2021/08/26 05:40:55;;;;;;;1999.90;999.90;;;;;;;10.65;54.49;100502.38;5089751;27;97082;-79
2021/08/26 05:43:23;;;;;;;1999.90;999.90;;;;;;;10.69;54.48;100504.25;5089934;27;97070;-78
2021/08/26 05:45:52;;;;;;;1999.90;999.90;;;;;;;10.73;54.41;100502.50;5070754;27;97153;-79
2021/08/26 05:48:20;;;;;;;1999.90;999.90;;;;;;;10.73;54.46;100513.16;5072796;27;100437;-78
2021/08/26 05:50:48;;;;;;;1999.90;999.90;;;;;;;10.69;54.77;100508.66;5055711;27;97230;-80
2021/08/26 05:53:17;;;;;;;1999.90;999.90;;;;;;;10.66;54.79;100508.63;5068164;27;96885;-79
2021/08/26 05:55:47;;;;;;;1999.90;999.90;;;;;;;10.65;54.68;100499.72;5069007;27;99346;-82
2021/08/26 05:58:15;;;;;;;1999.90;999.90;;;;;;;10.62;54.59;100506.78;5049241;27;97735;-80
2021/08/26 06:00:46;;;;;;;1999.90;999.90;;;;;;;10.60;54.79;100516.50;5073943;27;97228;-80
2021/08/26 06:03:15;;;;;;;1999.90;999.90;;;;;;;10.57;54.64;100514.69;5055538;27;96914;-79
2021/08/26 06:05:44;;;;;;;1999.90;999.90;;;;;;;10.55;55.06;100511.09;5072228;27;99335;-79
2021/08/26 06:08:13;;;;;;;1999.90;999.90;;;;;;;10.56;54.92;100512.88;5090205;27;96935;-79
2021/08/26 06:10:42;;;;;;;1999.90;999.90;;;;;;;10.59;55.01;100515.63;5074045;27;96908;-79
2021/08/26 06:13:10;;;;;;;1999.90;999.90;;;;;;;10.63;54.75;100512.13;5058841;27;96972;-80
2021/08/26 06:15:38;;;;;;;1999.90;999.90;;;;;;;10.69;54.42;100508.66;5093251;27;97959;-78
2021/08/26 06:18:07;;;;;;;1999.90;999.90;;;;;;;10.70;54.61;100500.69;5070367;27;98538;-79
2021/08/26 06:20:39;;;;;;;1999.90;999.90;;;;;;;10.70;54.80;100507.81;5046110;27;97071;-79
2021/08/26 06:23:07;;;;;;;1999.90;999.90;;;;;;;10.71;54.60;100513.16;5055016;27;97318;-79
2021/08/26 06:25:35;;;;;;;1999.90;999.90;;;;;;;10.71;54.77;100507.81;5071502;27;97783;-80
2021/08/26 06:28:04;;;;;;;1999.90;999.90;;;;;;;10.74;54.56;100505.19;5069220;27;99034;-80
2021/08/26 06:30:32;;;;;;;1999.90;999.90;;;;;;;10.75;54.50;100503.44;5066225;27;97274;-79
2021/08/26 06:33:00;;;;;;;1999.90;999.90;;;;;;;10.77;54.56;100513.25;5069467;27;96757;-80
2021/08/26 06:35:28;;;;;;;1999.90;999.90;;;;;;;10.80;54.59;100507.06;5071869;27;96813;-79
2021/08/26 06:37:57;;;;;;;1999.90;999.90;;;;;;;10.82;54.52;100502.66;5070883;27;99411;-80
2021/08/26 06:40:25;;;;;;;1999.90;999.90;;;;;;;10.83;54.39;100508.00;5070110;27;97295;-80
2021/08/26 06:42:54;;;;;;;1999.90;999.90;;;;;;;10.83;54.79;100520.44;5069165;27;96892;-80
2021/08/26 06:45:22;;;;;;;1999.90;999.90;;;;;;;10.81;54.58;100520.38;5072237;27;96723;-79
2021/08/26 06:47:51;;;;;;;1999.90;999.90;;;;;;;10.79;54.76;100523.91;5052561;27;100684;-79
2021/08/26 06:50:20;;;;;;;1999.90;999.90;;;;;;;10.84;54.46;100508.91;5086780;27;96987;-79
2021/08/26 06:52:48;;;;;;;1999.90;999.90;;;;;;;10.89;54.39;100513.44;5049790;27;97637;-79
2021/08/26 06:55:18;;;;;;;1999.90;999.90;;;;;;;10.88;54.65;100501.00;5065783;27;96841;-80
2021/08/26 06:57:48;;;;;;;1999.90;999.90;;;;;;;10.88;54.60;100505.44;5068439;27;100895;-79
2021/08/26 07:00:17;;;;;;;1999.90;999.90;;;;;;;10.93;54.42;100503.72;5046397;27;96833;-82
2021/08/26 07:02:45;;;;;;;1999.90;999.90;;;;;;;10.97;54.22;100502.91;5087564;27;96857;-79
2021/08/26 07:05:13;;;;;;;1999.90;999.90;;;;;;;11.04;54.02;100511.00;5063444;27;99483;-79
2021/08/26 07:07:42;;;;;;;1999.90;999.90;;;;;;;11.09;54.04;100511.06;5066306;27;96862;-79
2021/08/26 07:10:10;;;;;;;1999.90;999.90;;;;;;;11.11;53.73;100511.97;5069489;27;96800;-80
2021/08/26 07:12:40;;;;;;;1999.90;999.90;;;;;;;11.08;54.25;100517.28;5085867;27;96850;-79
2021/08/26 07:15:09;;;;;;;1999.90;999.90;;;;;;;11.04;54.46;100508.34;5048739;27;99819;-79
2021/08/26 07:17:38;;;;;;;1999.90;999.90;;;;;;;11.04;54.17;100515.44;5066059;27;99310;-78
2021/08/26 07:20:08;;;;;;;1999.90;999.90;;;;;;;11.03;54.35;100518.97;5067261;27;96921;-80
2021/08/26 07:22:37;;;;;;;1999.90;999.90;;;;;;;11.04;53.98;100513.69;5087860;27;97215;-79
2021/08/26 07:25:05;;;;;;;1999.90;999.90;;;;;;;11.09;54.14;100521.72;5047767;27;99584;-79
2021/08/26 07:27:34;;;;;;;1999.90;999.90;;;;;;;11.13;54.01;100527.13;5067508;27;96876;-79
2021/08/26 07:30:04;;;;;;;1999.90;999.90;;;;;;;11.17;53.89;100528.97;5066211;27;96974;-78
2021/08/26 07:32:32;;;;;;;1999.90;999.90;;;;;;;11.24;53.78;100527.28;5071298;27;96911;-80
2021/08/26 07:35:01;;;;;;;1999.90;999.90;;;;;;;11.32;53.57;100524.75;5054920;27;97032;-79
2021/08/26 07:37:29;;;;;;;1999.90;999.90;;;;;;;11.38;53.59;100516.84;5067355;27;97101;-81
2021/08/26 07:39:57;;;;;;;1999.90;999.90;;;;;;;11.44;53.46;100516.91;5070215;27;97511;-83
2021/08/26 07:42:25;;;;;;;1999.90;999.90;;;;;;;11.49;53.57;100515.22;5053573;27;96934;-83
2021/08/26 07:44:53;;;;;;;1999.90;999.90;;;;;;;11.49;53.56;100524.09;5052935;27;99832;-82
2021/08/26 07:47:22;;;;;;;1999.90;999.90;;;;;;;11.49;53.41;100524.09;5064270;27;99194;-77
2021/08/26 07:49:50;;;;;;;1999.90;999.90;;;;;;;11.54;53.11;100518.84;5067066;27;96954;-77
2021/08/26 07:52:18;;;;;;;1999.90;999.90;;;;;;;11.60;52.91;100514.47;5087867;27;97901;-77
2021/08/26 07:54:46;;;;;;;1999.90;999.90;;;;;;;11.66;53.28;100517.22;5065832;27;99627;-81
2021/08/26 07:57:14;;;;;;;1999.90;999.90;;;;;;;11.62;52.86;100507.41;5052512;27;99507;-78
2021/08/26 07:59:43;;;;;;;1999.90;999.90;;;;;;;11.65;52.71;100517.22;5052710;27;96922;-79
2021/08/26 08:02:12;;;;;;;1999.90;999.90;;;;;;;11.69;52.51;100513.72;5066092;27;96984;-79
2021/08/26 08:04:42;;;;;;;1999.90;999.90;;;;;;;11.71;52.70;100507.50;5067684;27;97179;-81
2021/08/26 08:07:10;;;;;;;1999.90;999.90;;;;;;;11.75;52.48;100508.44;5065256;27;100871;-81
2021/08/26 08:09:38;;;;;;;1999.90;999.90;;;;;;;11.76;52.42;100519.09;5049012;27;96887;-77
2021/08/26 08:12:06;;;;;;;1999.90;999.90;;;;;;;11.79;52.54;100527.16;5050084;27;96861;-78
2021/08/26 08:14:34;;;;;;;1999.90;999.90;;;;;;;11.78;52.16;100538.69;5065580;27;98287;-77
2021/08/26 08:17:03;;;;;;;1999.90;999.90;;;;;;;11.75;52.27;100540.44;5065797;27;97721;-81
2021/08/26 08:19:31;;;;;;;1999.90;999.90;;;;;;;11.76;52.33;100542.22;5081467;27;96901;-79
2021/08/26 08:22:00;;;;;;;1999.90;999.90;;;;;;;11.80;52.20;100538.69;5062987;27;97268;-80
2021/08/26 08:24:28;;;;;;;1999.90;999.90;;;;;;;11.78;52.26;100519.16;5062019;27;97838;-80
2021/08/26 08:26:57;;;;;;;1999.90;999.90;;;;;;;11.76;52.28;100515.56;5046999;27;99527;-81
2021/08/26 08:29:26;;;;;;;1999.90;999.90;;;;;;;11.72;52.56;100521.75;5063996;27;97129;-78
2021/08/26 08:31:54;;;;;;;1999.90;999.90;;;;;;;11.67;52.35;100513.66;5049358;27;96662;-80
2021/08/26 08:34:22;;;;;;;1999.90;999.90;;;;;;;11.66;52.73;100518.97;5085046;27;97629;-81
2021/08/26 08:36:50;;;;;;;1999.90;999.90;;;;;;;11.68;52.52;100526.13;5049307;27;98987;-82
2021/08/26 08:39:21;;;;;;;1999.90;999.90;;;;;;;11.69;52.60;100524.38;5050413;27;96832;-81
2021/08/26 08:41:49;;;;;;;1999.90;999.90;;;;;;;11.71;52.57;100525.25;5069608;27;96891;-79
2021/08/26 08:44:17;;;;;;;1999.90;999.90;;;;;;;11.75;52.47;100517.34;5084064;27;97811;-79
2021/08/26 08:46:48;;;;;;;1999.90;999.90;;;;;;;11.85;52.31;100513.00;5050784;27;96987;-81
2021/08/26 08:49:20;;;;;;;1999.90;999.90;;;;;;;11.86;52.29;100514.78;5069427;27;96682;-77
2021/08/26 08:51:48;;;;;;;1999.90;999.90;;;;;;;11.93;52.14;100513.97;5051478;27;97428;-79
2021/08/26 08:54:17;;;;;;;1999.90;999.90;;;;;;;11.94;52.33;100519.31;5049475;27;97838;-77
2021/08/26 08:56:46;;;;;;;1999.90;999.90;;;;;;;11.97;52.13;100527.38;5050110;27;96760;-79
2021/08/26 08:59:15;;;;;;;1999.90;999.90;;;;;;;12.00;52.07;100535.41;5051891;27;97289;-79
2021/08/26 09:01:50;;;;;;;1999.90;999.90;;;;;;;12.02;52.13;100538.97;5051460;27;96886;-79
2021/08/26 09:04:19;;;;;;;1999.90;999.90;;;;;;;12.06;51.85;100531.91;5067089;27;97660;-77
2021/08/26 09:06:49;;;;;;;1999.90;999.90;;;;;;;12.11;51.82;100544.41;5068560;27;98835;-78
2021/08/26 09:09:20;;;;;;;1999.90;999.90;;;;;;;12.13;51.84;100533.75;5067927;27;96990;-77
2021/08/26 09:11:51;;;;;;;1999.90;999.90;;;;;;;12.06;51.93;100532.81;5086389;27;97313;-78
2021/08/26 09:14:19;;;;;;;1999.90;999.90;;;;;;;12.02;52.07;100538.09;5067727;27;97312;-81
2021/08/26 09:16:49;;;;;;;1999.90;999.90;;;;;;;11.98;52.27;100538.94;5050611;27;99276;-79
2021/08/26 09:19:24;;;;;;;1999.90;999.90;;;;;;;11.98;52.60;100547.81;5067034;27;96789;-78
2021/08/26 09:21:53;;;;;;;1999.90;999.90;;;;;;;11.96;52.49;100540.69;5051303;27;96861;-79
2021/08/26 09:24:21;;;;;;;1999.90;999.90;;;;;;;11.95;52.34;100537.13;5051391;27;99541;-80
2021/08/26 09:26:52;;;;;;;1999.90;999.90;;;;;;;12.00;52.52;100535.41;5067805;27;98604;-77
2021/08/26 09:29:20;;;;;;;1999.90;999.90;;;;;;;12.02;52.30;100544.31;5067336;27;97316;-76
2021/08/26 09:31:48;;;;;;;1999.90;999.90;;;;;;;12.06;52.11;100530.16;5087591;27;97382;-79
2021/08/26 09:34:18;;;;;;;1999.90;999.90;;;;;;;12.09;52.20;100521.25;5049931;27;97149;-78
2021/08/26 09:36:54;;;;;;;1999.90;999.90;;;;;;;12.07;52.43;100521.25;5067813;27;99174;-81
2021/08/26 09:39:24;;;;;;;1999.90;999.90;;;;;;;12.06;52.13;100522.16;5051678;27;96832;-77
2021/08/26 09:41:56;;;;;;;1999.90;999.90;;;;;;;12.04;52.16;100510.56;5051618;27;96904;-81
2021/08/26 09:44:26;;;;;;;1999.90;999.90;;;;;;;12.04;52.01;100489.22;5070321;27;99658;-80
2021/08/26 09:46:56;;;;;;;1999.90;999.90;;;;;;;12.04;52.17;100478.56;5051529;27;101097;-81
2021/08/26 09:49:25;;;;;;;1999.90;999.90;;;;;;;12.04;52.06;100483.91;5054134;27;97247;-78
2021/08/26 09:52:05;;;;;;;1999.90;999.90;;;;;;;12.01;52.41;100491.88;5069646;27;96943;-81
2021/08/26 09:54:35;;;;;;;1999.90;999.90;;;;;;;12.02;52.16;100490.97;5070186;27;96923;-79
2021/08/26 09:57:06;;;;;;;1999.90;999.90;;;;;;;12.03;52.15;100491.88;5053566;27;100608;-79
2021/08/26 09:59:49;;;;;;;1999.90;999.90;;;;;;;12.03;52.55;100492.78;5089327;27;96901;-80
2021/08/26 10:02:22;;;;;;;1999.90;999.90;;;;;;;12.06;52.13;100489.25;5054005;27;96761;-80
2021/08/26 10:04:51;;;;;;;1999.90;999.90;;;;;;;12.08;52.16;100493.72;5090846;27;96856;-80
2021/08/26 10:07:19;;;;;;;1999.90;999.90;;;;;;;12.14;51.91;100488.44;5072461;27;98069;-78
2021/08/26 10:09:48;;;;;;;1999.90;999.90;;;;;;;12.18;51.94;100489.41;5055962;27;96684;-81
2021/08/26 10:12:18;;;;;;;1999.90;999.90;;;;;;;12.24;51.78;100480.59;5055444;27;96885;-79
2021/08/26 10:14:48;;;;;;;1999.90;999.90;;;;;;;12.32;51.63;100486.88;5053060;27;98478;-79
2021/08/26 10:17:16;;;;;;;1999.90;999.90;;;;;;;12.40;51.32;100487.84;5053358;27;96933;-82
2021/08/26 10:19:45;;;;;;;1999.90;999.90;;;;;;;12.48;51.19;100480.78;5053172;27;97003;-79
2021/08/26 10:22:14;;;;;;;1999.90;999.90;;;;;;;12.53;51.07;100487.06;5068365;27;96911;-79
2021/08/26 10:24:43;;;;;;;1999.90;999.90;;;;;;;12.52;50.95;100486.16;5067530;27;96856;-80
2021/08/26 10:27:15;;;;;;;1999.90;999.90;;;;;;;12.59;50.71;100473.75;5052490;27;96904;-80
2021/08/26 10:29:47;;;;;;;1999.90;999.90;;;;;;;12.66;50.55;100472.91;5056316;27;96854;-80
2021/08/26 10:32:17;;;;;;;1999.90;999.90;;;;;;;12.69;50.39;100473.81;5076649;27;97284;-79
2021/08/26 10:35:05;;;;;;;1999.90;999.90;;;;;;;12.70;50.37;100472.06;5059873;27;96767;-83
2021/08/26 10:37:44;;;;;;;1999.90;999.90;;;;;;;12.69;49.96;100468.50;5055272;27;100246;-80
2021/08/26 10:40:36;;;;;;;1999.90;999.90;;;;;;;12.67;49.82;100466.72;5056815;27;96728;-80
2021/08/26 10:43:05;;;;;;;1999.90;999.90;;;;;;;12.71;50.17;100469.41;5078592;27;97061;-78
2021/08/26 10:45:51;;;;;;;1999.90;999.90;;;;;;;12.65;48.89;100465.81;5049453;27;100087;-78
2021/08/26 10:48:22;;;;;;;1999.90;999.90;;;;;;;12.68;50.00;100468.47;5086577;27;97223;-77
2021/08/26 10:51:07;;;;;;;1999.90;999.90;;;;;;;12.69;49.96;100467.63;5084516;27;97073;-78
2021/08/26 10:53:36;;;;;;;1999.90;999.90;;;;;;;12.75;49.96;100464.97;5052878;27;97386;-78
2021/08/26 10:56:22;;;;;;;1999.90;999.90;;;;;;;12.77;49.60;100463.22;5063367;27;98865;-79
2021/08/26 10:58:51;;;;;;;1999.90;999.90;;;;;;;12.82;49.56;100461.50;5049078;27;100608;-79